createdAt,value
2023-01-07T00:01:36.952Z,98779.75
2023-01-07T00:04:05.364Z,98777.19
2023-01-07T00:06:34.729Z,98773.53
2023-01-07T00:09:02.515Z,98770.03
2023-01-07T00:11:33.259Z,98765.63
2023-01-07T00:14:01.247Z,98764.75
2023-01-07T00:16:30.830Z,98759.41
2023-01-07T00:18:59.171Z,98766.53
2023-01-07T00:21:28.071Z,98765.50
2023-01-07T00:23:56.704Z,98762.16
2023-01-07T00:26:25.391Z,98761.22
2023-01-07T00:28:53.465Z,98771.63
2023-01-07T00:31:32.136Z,98767.41
2023-01-07T00:33:59.615Z,98767.31
2023-01-07T00:36:34.613Z,98762.13
2023-01-07T00:39:02.683Z,98767.38
2023-01-07T00:41:29.306Z,98767.09
2023-01-07T00:43:56.503Z,98765.50
2023-01-07T00:46:23.303Z,98774.03
2023-01-07T00:48:50.480Z,98777.72
2023-01-07T00:51:18.458Z,98769.69
2023-01-07T00:53:45.554Z,98775.00
2023-01-07T00:56:14.796Z,98775.91
2023-01-07T00:58:42.087Z,98773.28
2023-01-07T01:01:11.054Z,98774.97
2023-01-07T01:03:38.678Z,98775.84
2023-01-07T01:06:08.808Z,98776.69
2023-01-07T01:08:35.755Z,98778.44
2023-01-07T01:11:06.130Z,98768.88
2023-01-07T01:13:33.501Z,98767.84
2023-01-07T01:16:00.494Z,98764.44
2023-01-07T01:18:27.238Z,98766.19
2023-01-07T01:20:55.050Z,98757.22
2023-01-07T01:23:21.961Z,98752.84
2023-01-07T01:25:48.773Z,98745.94
2023-01-07T01:28:15.471Z,98741.47
2023-01-07T01:30:42.321Z,98745.00
2023-01-07T01:33:08.988Z,98748.63
2023-01-07T01:35:40.002Z,98755.59
2023-01-07T01:38:06.597Z,98748.59
2023-01-07T01:40:33.253Z,98739.81
2023-01-07T01:42:59.791Z,98743.41
2023-01-07T01:45:26.650Z,98738.22
2023-01-07T01:48:03.742Z,98741.75
2023-01-07T01:50:35.330Z,98741.88
2023-01-07T01:53:06.936Z,98727.09
2023-01-07T01:55:38.038Z,98721.81
2023-01-07T01:58:09.207Z,98712.34
2023-01-07T02:00:36.764Z,98716.00
2023-01-07T02:03:09.029Z,98716.91
2023-01-07T02:05:40.551Z,98721.28
2023-01-07T02:08:07.640Z,98719.53
2023-01-07T02:10:35.271Z,98726.59
2023-01-07T02:13:26.717Z,98717.03
2023-01-07T02:16:22.703Z,98721.44
2023-01-07T02:19:06.892Z,98720.69
2023-01-07T02:21:46.800Z,98724.22
2023-01-07T02:24:38.048Z,98724.38
2023-01-07T02:27:41.453Z,98725.34
2023-01-07T02:30:38.770Z,98719.28
2023-01-07T02:33:12.076Z,98710.56
2023-01-07T02:36:00.623Z,98695.06
2023-01-07T02:39:04.334Z,98697.66
2023-01-07T02:41:59.744Z,98693.28
2023-01-07T02:44:42.571Z,98686.22
2023-01-07T02:48:00.376Z,98682.53
2023-01-07T02:50:26.965Z,98678.16
2023-01-07T02:52:53.575Z,98685.06
2023-01-07T02:55:39.598Z,98678.84
2023-01-07T02:58:33.247Z,98686.66
2023-01-07T03:01:30.387Z,98679.78
2023-01-07T03:04:09.290Z,98677.13
2023-01-07T03:07:12.612Z,98666.56
2023-01-07T03:09:50.946Z,98675.28
2023-01-07T03:12:46.359Z,98675.16
2023-01-07T03:15:42.000Z,98677.72
2023-01-07T03:18:15.790Z,98672.38
2023-01-07T03:20:44.686Z,98680.22
2023-01-07T03:23:14.173Z,98681.09
2023-01-07T03:25:45.535Z,98686.41
2023-01-07T03:28:17.092Z,98688.09
2023-01-07T03:30:44.859Z,98690.94
2023-01-07T03:33:31.250Z,98686.47
2023-01-07T03:36:00.158Z,98689.06
2023-01-07T03:38:28.308Z,98688.09
2023-01-07T03:40:54.981Z,98684.69
2023-01-07T03:43:23.164Z,98683.81
2023-01-07T03:45:52.535Z,98682.84
2023-01-07T03:48:19.119Z,98672.34
2023-01-07T03:50:45.662Z,98675.06
2023-01-07T03:53:12.307Z,98679.56
2023-01-07T03:55:39.002Z,98667.19
2023-01-07T03:58:05.782Z,98669.81
2023-01-07T04:00:32.587Z,98663.72
2023-01-07T04:02:59.178Z,98672.56
2023-01-07T04:05:25.808Z,98667.22
2023-01-07T04:07:52.376Z,98670.72
2023-01-07T04:10:19.124Z,98670.59
2023-01-07T04:12:45.731Z,98674.97
2023-01-07T04:15:12.313Z,98678.38
2023-01-07T04:17:39.048Z,98672.25
2023-01-07T04:20:08.035Z,98673.09
2023-01-07T04:22:34.899Z,98658.25
2023-01-07T04:25:01.485Z,98663.34
2023-01-07T04:27:29.850Z,98666.91
2023-01-07T04:29:56.362Z,98648.44
2023-01-07T04:32:23.068Z,98648.44
2023-01-07T04:34:49.776Z,98647.59
2023-01-07T04:37:16.335Z,98643.09
2023-01-07T04:39:43.004Z,98644.94
2023-01-07T04:42:09.558Z,98639.69
2023-01-07T04:44:36.139Z,98646.56
2023-01-07T04:47:02.808Z,98645.81
2023-01-07T04:49:29.430Z,98647.66
2023-01-07T04:51:56.163Z,98636.31
2023-01-07T04:54:22.647Z,98619.72
2023-01-07T04:56:49.811Z,98629.19
2023-01-07T04:59:16.482Z,98631.84
2023-01-07T05:01:43.199Z,98625.81
2023-01-07T05:04:10.028Z,98621.34
2023-01-07T05:06:36.655Z,98624.09
2023-01-07T05:09:03.229Z,98617.00
2023-01-07T05:11:29.703Z,98612.72
2023-01-07T05:13:59.873Z,98610.97
2023-01-07T05:16:26.757Z,98611.84
2023-01-07T05:18:53.537Z,98609.22
2023-01-07T05:21:20.090Z,98599.56
2023-01-07T05:23:46.668Z,98609.31
2023-01-07T05:26:13.286Z,98600.47
2023-01-07T05:28:39.849Z,98600.44
2023-01-07T05:31:06.411Z,98602.88
2023-01-07T05:33:33.154Z,98603.78
2023-01-07T05:35:59.751Z,98588.09
2023-01-07T05:38:26.358Z,98588.91
2023-01-07T05:40:53.001Z,98592.34
2023-01-07T05:43:20.401Z,98588.94
2023-01-07T05:45:47.554Z,98583.84
2023-01-07T05:48:14.988Z,98587.09
2023-01-07T05:50:42.699Z,98583.84
2023-01-07T05:53:09.221Z,98577.75
2023-01-07T05:55:37.730Z,98586.47
2023-01-07T05:58:04.974Z,98575.16
2023-01-07T06:00:31.658Z,98584.06
2023-01-07T06:02:58.261Z,98579.78
2023-01-07T06:05:25.140Z,98582.41
2023-01-07T06:07:51.694Z,98584.97
2023-01-07T06:10:18.266Z,98578.00
2023-01-07T06:12:44.958Z,98583.19
2023-01-07T06:15:12.107Z,98583.19
2023-01-07T06:17:38.749Z,98583.28
2023-01-07T06:20:06.382Z,98577.97
2023-01-07T06:22:32.925Z,98578.00
2023-01-07T06:24:59.496Z,98584.03
2023-01-07T06:27:26.104Z,98586.50
2023-01-07T06:29:52.677Z,98581.22
2023-01-07T06:32:19.317Z,98580.38
2023-01-07T06:34:45.994Z,98579.47
2023-01-07T06:37:13.245Z,98581.28
2023-01-07T06:39:39.807Z,98586.50
2023-01-07T06:42:06.331Z,98581.28
2023-01-07T06:44:32.936Z,98576.06
2023-01-07T06:46:59.492Z,98591.88
2023-01-07T06:49:26.164Z,98585.75
2023-01-07T06:51:52.792Z,98582.25
2023-01-07T06:54:19.405Z,98584.00
2023-01-07T06:56:45.979Z,98584.97
2023-01-07T06:59:12.647Z,98579.72
2023-01-07T07:01:39.274Z,98581.66
2023-01-07T07:04:05.970Z,98577.25
2023-01-07T07:06:33.120Z,98588.63
2023-01-07T07:08:59.717Z,98594.72
2023-01-07T07:11:26.337Z,98592.09
2023-01-07T07:13:52.943Z,98588.63
2023-01-07T07:16:22.663Z,98587.78
2023-01-07T07:18:49.667Z,98583.50
2023-01-07T07:21:16.245Z,98593.19
2023-01-07T07:23:42.865Z,98593.19
2023-01-07T07:26:10.404Z,98594.06
2023-01-07T07:28:37.126Z,98596.59
2023-01-07T07:31:03.957Z,98587.16
2023-01-07T07:33:30.575Z,98590.72
2023-01-07T07:35:57.584Z,98600.41
2023-01-07T07:38:24.184Z,98601.41
2023-01-07T07:40:50.732Z,98589.25
2023-01-07T07:43:17.324Z,98587.53
2023-01-07T07:45:44.223Z,98586.63
2023-01-07T07:48:13.616Z,98597.88
2023-01-07T07:50:40.331Z,98594.44
2023-01-07T07:53:10.322Z,98589.25
2023-01-07T07:55:38.418Z,98587.47
2023-01-07T07:58:05.720Z,98577.81
2023-01-07T08:00:32.997Z,98585.56
2023-01-07T08:03:00.416Z,98581.88
2023-01-07T08:05:27.987Z,98586.13
2023-01-07T08:07:54.710Z,98584.38
2023-01-07T08:10:21.263Z,98572.88
2023-01-07T08:12:48.579Z,98576.41
2023-01-07T08:15:15.504Z,98584.28
2023-01-07T08:17:42.340Z,98582.59
2023-01-07T08:20:09.695Z,98571.22
2023-01-07T08:22:36.544Z,98568.59
2023-01-07T08:25:03.540Z,98576.28
2023-01-07T08:27:30.411Z,98566.81
2023-01-07T08:29:57.201Z,98570.28
2023-01-07T08:32:23.730Z,98578.97
2023-01-07T08:34:50.360Z,98572.09
2023-01-07T08:37:17.082Z,98576.41
2023-01-07T08:39:43.683Z,98576.28
2023-01-07T08:42:10.412Z,98580.59
2023-01-07T08:44:37.095Z,98578.94
2023-01-07T08:47:03.801Z,98578.13
2023-01-07T08:49:30.443Z,98569.41
2023-01-07T08:51:57.001Z,98574.47
2023-01-07T08:54:23.646Z,98567.41
2023-01-07T08:56:50.319Z,98558.59
2023-01-07T08:59:16.824Z,98560.31
2023-01-07T09:01:43.635Z,98559.34
2023-01-07T09:04:10.402Z,98558.28
2023-01-07T09:06:37.055Z,98555.75
2023-01-07T09:09:03.942Z,98546.16
2023-01-07T09:11:30.612Z,98556.56
2023-01-07T09:13:57.179Z,98544.44
2023-01-07T09:16:23.796Z,98555.72
2023-01-07T09:18:51.034Z,98544.25
2023-01-07T09:21:17.815Z,98545.19
2023-01-07T09:23:44.576Z,98536.47
2023-01-07T09:26:11.302Z,98533.88
2023-01-07T09:28:37.848Z,98548.63
2023-01-07T09:31:05.633Z,98546.00
2023-01-07T09:33:32.503Z,98546.91
2023-01-07T09:35:59.169Z,98534.53
2023-01-07T09:38:25.793Z,98551.22
2023-01-07T09:40:53.498Z,98549.28
2023-01-07T09:43:59.928Z,98542.38
2023-01-07T09:46:17.552Z,98536.25
2023-01-07T09:48:47.540Z,98539.66
2023-01-07T09:51:40.836Z,98537.06
2023-01-07T09:54:27.314Z,98528.28
2023-01-07T09:56:54.153Z,98531.78
2023-01-07T09:59:21.058Z,98524.69
2023-01-07T10:02:00.761Z,98528.09
2023-01-07T10:04:51.760Z,98521.88
2023-01-07T10:07:35.094Z,98515.75
2023-01-07T10:10:10.820Z,98506.22
2023-01-07T10:13:05.122Z,98512.13
2023-01-07T10:16:16.399Z,98506.69
2023-01-07T10:19:01.828Z,98511.03
2023-01-07T10:21:47.560Z,98499.53
2023-01-07T10:24:22.120Z,98496.03
2023-01-07T10:26:54.222Z,98492.56
2023-01-07T10:29:32.443Z,98488.31
2023-01-07T10:32:07.038Z,98485.69
2023-01-07T10:34:41.891Z,98481.50
2023-01-07T10:37:20.827Z,98477.81
2023-01-07T10:40:02.408Z,98476.94
2023-01-07T10:43:03.185Z,98470.78
2023-01-07T10:45:38.527Z,98460.31
2023-01-07T10:48:19.839Z,98459.41
2023-01-07T10:51:14.035Z,98455.84
2023-01-07T10:53:54.587Z,98450.47
2023-01-07T10:56:36.884Z,98450.69
2023-01-07T10:59:04.079Z,98450.44
2023-01-07T11:01:37.756Z,98442.72
2023-01-07T11:04:04.980Z,98429.44
2023-01-07T11:06:38.622Z,98432.84
2023-01-07T11:09:10.209Z,98427.59
2023-01-07T11:11:37.401Z,98422.28
2023-01-07T11:14:11.640Z,98420.75
2023-01-07T11:16:44.777Z,98415.19
2023-01-07T11:19:12.391Z,98418.88
2023-01-07T11:21:44.960Z,98413.69
2023-01-07T11:24:26.901Z,98407.56
2023-01-07T11:27:04.020Z,98398.75
2023-01-07T11:29:44.904Z,98396.72
2023-01-07T11:32:21.950Z,98396.75
2023-01-07T11:35:01.965Z,98391.38
2023-01-07T11:37:31.479Z,98390.66
2023-01-07T11:40:00.921Z,98393.28
2023-01-07T11:42:39.680Z,98380.88
2023-01-07T11:45:21.870Z,98375.63
2023-01-07T11:48:00.355Z,98367.97
2023-01-07T11:50:26.769Z,98367.84
2023-01-07T11:53:03.126Z,98366.34
2023-01-07T11:55:30.616Z,98363.00
2023-01-07T11:58:28.685Z,98360.56
2023-01-07T12:00:44.523Z,98350.84
2023-01-07T12:03:13.503Z,98343.13
2023-01-07T12:05:45.131Z,98340.50
2023-01-07T12:08:23.125Z,98335.13
2023-01-07T12:11:05.893Z,98331.72
2023-01-07T12:13:41.220Z,98329.06
2023-01-07T12:16:10.730Z,98323.00
2023-01-07T12:18:50.587Z,98319.53
2023-01-07T12:21:22.943Z,98314.28
2023-01-07T12:23:58.511Z,98306.97
2023-01-07T12:26:37.355Z,98307.00
2023-01-07T12:29:37.667Z,98303.34
2023-01-07T12:32:15.065Z,98299.09
2023-01-07T12:34:51.758Z,98300.03
2023-01-07T12:37:36.022Z,98289.44
2023-01-07T12:40:35.548Z,98285.16
2023-01-07T12:43:21.241Z,98271.97
2023-01-07T12:46:00.746Z,98262.25
2023-01-07T12:48:36.643Z,98269.44
2023-01-07T12:51:16.210Z,98261.63
2023-01-07T12:53:50.480Z,98266.59
2023-01-07T12:56:20.547Z,98258.03
2023-01-07T12:58:56.121Z,98254.66
2023-01-07T13:01:42.054Z,98247.59
2023-01-07T13:04:32.604Z,98236.97
2023-01-07T13:07:05.870Z,98233.28
2023-01-07T13:09:46.648Z,98226.38
2023-01-07T13:12:45.494Z,98219.34
2023-01-07T13:15:30.902Z,98209.00
2023-01-07T13:17:59.879Z,98217.63
2023-01-07T13:20:51.033Z,98221.34
2023-01-07T13:23:59.556Z,98210.88
2023-01-07T13:26:52.013Z,98203.84
2023-01-07T13:29:25.686Z,98205.63
2023-01-07T13:31:58.090Z,98208.63
2023-01-07T13:34:33.940Z,98204.88
2023-01-07T13:37:25.385Z,98204.97
2023-01-07T13:40:08.696Z,98191.91
2023-01-07T13:42:49.192Z,98189.28
2023-01-07T13:45:32.223Z,98192.91
2023-01-07T13:48:03.094Z,98186.69
2023-01-07T13:50:46.217Z,98192.84
2023-01-07T13:53:15.953Z,98186.75
2023-01-07T13:55:46.041Z,98192.91
2023-01-07T13:58:30.778Z,98192.13
2023-01-07T14:01:23.838Z,98190.47
2023-01-07T14:03:53.523Z,98195.84
2023-01-07T14:06:20.313Z,98192.50
2023-01-07T14:08:53.035Z,98199.47
2023-01-07T14:11:36.457Z,98193.19
2023-01-07T14:14:26.078Z,98196.97
2023-01-07T14:17:10.532Z,98186.44
2023-01-07T14:19:49.752Z,98187.16
2023-01-07T14:22:53.876Z,98174.81
2023-01-07T14:25:37.881Z,98172.28
2023-01-07T14:28:33.208Z,98183.72
2023-01-07T14:30:59.849Z,98178.59
2023-01-07T14:33:34.371Z,98173.31
2023-01-07T14:36:07.531Z,98165.31
2023-01-07T14:38:33.996Z,98178.47
2023-01-07T14:41:03.159Z,98174.19
2023-01-07T14:43:48.035Z,98183.00
2023-01-07T14:46:23.754Z,98180.41
2023-01-07T14:49:04.802Z,98176.97
2023-01-07T14:52:02.162Z,98170.59
2023-01-07T14:55:05.713Z,98163.75
2023-01-07T14:58:10.156Z,98178.78
2023-01-07T15:01:18.700Z,98170.88
2023-01-07T15:04:16.227Z,98173.50
2023-01-07T15:06:43.563Z,98174.31
2023-01-07T15:09:35.893Z,98156.09
2023-01-07T15:12:31.118Z,98163.81
2023-01-07T15:15:33.538Z,98152.78
2023-01-07T15:18:04.755Z,98152.63
2023-01-07T15:20:54.841Z,98140.38
2023-01-07T15:23:57.193Z,98143.84
2023-01-07T15:26:38.652Z,98140.41
2023-01-07T15:29:17.235Z,98143.19
2023-01-07T15:32:03.260Z,98140.63
2023-01-07T15:34:31.914Z,98136.97
2023-01-07T15:37:02.315Z,98136.19
2023-01-07T15:39:34.686Z,98139.69
2023-01-07T15:42:06.582Z,98133.75
2023-01-07T15:44:40.733Z,98128.41
2023-01-07T15:47:52.844Z,98129.19
2023-01-07T15:50:26.809Z,98137.22
2023-01-07T15:53:00.020Z,98118.06
2023-01-07T15:55:31.921Z,98119.72
2023-01-07T15:58:07.135Z,98125.03
2023-01-07T16:00:34.869Z,98125.03
2023-01-07T16:03:02.780Z,98123.31
2023-01-07T16:05:29.556Z,98128.34
2023-01-07T16:08:01.154Z,98126.84
2023-01-07T16:10:31.948Z,98117.06
2023-01-07T16:13:01.409Z,98112.09
2023-01-07T16:15:29.602Z,98119.88
2023-01-07T16:18:02.251Z,98111.97
2023-01-07T16:20:40.718Z,98113.63
2023-01-07T16:23:10.136Z,98107.59
2023-01-07T16:26:02.494Z,98105.94
2023-01-07T16:28:49.603Z,98116.59
2023-01-07T16:31:19.904Z,98109.53
2023-01-07T16:33:51.645Z,98097.31
2023-01-07T16:36:23.371Z,98100.94
2023-01-07T16:38:53.715Z,98094.34
2023-01-07T16:41:28.220Z,98090.56
2023-01-07T16:43:58.973Z,98083.66
2023-01-07T16:46:26.794Z,98084.78
2023-01-07T16:49:11.492Z,98081.34
2023-01-07T16:51:42.827Z,98075.28
2023-01-07T16:54:24.425Z,98062.34
2023-01-07T16:56:54.027Z,98059.06
2023-01-07T16:59:22.541Z,98060.69
2023-01-07T17:01:49.182Z,98059.13
2023-01-07T17:04:27.804Z,98062.84
2023-01-07T17:06:54.519Z,98056.88
2023-01-07T17:09:24.695Z,98061.34
2023-01-07T17:11:52.940Z,98055.41
2023-01-07T17:14:34.794Z,98060.91
2023-01-07T17:17:17.650Z,98062.19
2023-01-07T17:20:01.071Z,98069.25
2023-01-07T17:22:33.580Z,98058.91
2023-01-07T17:25:21.589Z,98066.81
2023-01-07T17:27:55.931Z,98053.81
2023-01-07T17:30:26.900Z,98057.06
2023-01-07T17:32:53.411Z,98054.66
2023-01-07T17:35:25.093Z,98053.91
2023-01-07T17:37:54.202Z,98054.25
2023-01-07T17:40:21.074Z,98049.38
2023-01-07T17:43:07.143Z,98053.09
2023-01-07T17:45:33.959Z,98053.25
2023-01-07T17:48:01.478Z,98043.75
2023-01-07T17:50:35.757Z,98037.59
2023-01-07T17:53:02.352Z,98038.44
2023-01-07T17:55:31.506Z,98036.66
2023-01-07T17:57:58.422Z,98036.59
2023-01-07T18:00:30.673Z,98024.41
2023-01-07T18:02:57.510Z,98033.81
2023-01-07T18:05:25.960Z,98026.97
2023-01-07T18:07:53.046Z,98023.56
2023-01-07T18:10:27.487Z,98035.03
2023-01-07T18:12:59.135Z,98030.72
2023-01-07T18:15:27.277Z,98030.53
2023-01-07T18:17:53.784Z,98030.75
2023-01-07T18:20:21.742Z,98034.22
2023-01-07T18:22:48.490Z,98027.53
2023-01-07T18:25:24.345Z,98040.84
2023-01-07T18:27:53.358Z,98030.59
2023-01-07T18:30:22.148Z,98015.59
2023-01-07T18:32:49.571Z,98014.69
2023-01-07T18:35:30.956Z,98004.22
2023-01-07T18:37:57.461Z,97986.78
2023-01-07T18:40:23.983Z,97979.66
2023-01-07T18:42:58.304Z,97975.31
2023-01-07T18:45:33.031Z,97979.75
2023-01-07T18:47:59.594Z,97971.97
2023-01-07T18:50:26.082Z,97971.34
2023-01-07T18:52:59.112Z,97973.06
2023-01-07T18:55:33.121Z,97977.44
2023-01-07T18:57:59.621Z,97982.00
2023-01-07T19:00:26.128Z,97981.13
2023-01-07T19:02:58.691Z,97990.59
2023-01-07T19:05:29.404Z,97992.47
2023-01-07T19:07:56.158Z,97993.44
2023-01-07T19:10:23.820Z,97986.56
2023-01-07T19:12:50.632Z,97985.84
2023-01-07T19:15:22.629Z,97985.78
2023-01-07T19:17:49.083Z,97977.03
2023-01-07T19:20:16.475Z,97977.88
2023-01-07T19:22:42.943Z,97976.28
2023-01-07T19:25:09.913Z,97974.53
2023-01-07T19:27:36.488Z,97964.84
2023-01-07T19:30:03.096Z,97957.63
2023-01-07T19:32:30.445Z,97954.84
2023-01-07T19:34:59.372Z,97952.09
2023-01-07T19:37:25.918Z,97944.22
2023-01-07T19:39:59.071Z,97943.22
2023-01-07T19:42:25.565Z,97934.53
2023-01-07T19:44:52.023Z,97941.31
2023-01-07T19:47:19.088Z,97940.66
2023-01-07T19:49:45.608Z,97938.94
2023-01-07T19:52:13.559Z,97939.75
2023-01-07T19:54:40.095Z,97939.94
2023-01-07T19:57:06.566Z,97932.53
2023-01-07T19:59:35.020Z,97917.94
2023-01-07T20:02:02.905Z,97908.91
2023-01-07T20:04:29.906Z,97898.53
2023-01-07T20:06:56.506Z,97899.34
2023-01-07T20:09:23.057Z,97896.53
2023-01-07T20:11:49.550Z,97896.09
2023-01-07T20:14:16.000Z,97893.41
2023-01-07T20:16:42.770Z,97904.09
2023-01-07T20:19:10.626Z,97904.81
2023-01-07T20:21:37.166Z,97894.44
2023-01-07T20:24:04.410Z,97905.00
2023-01-07T20:26:32.456Z,97906.03
2023-01-07T20:28:59.912Z,97898.25
2023-01-07T20:31:30.677Z,97889.72
2023-01-07T20:33:58.146Z,97891.44
2023-01-07T20:36:27.775Z,97891.44
2023-01-07T20:38:54.568Z,97884.53
2023-01-07T20:41:24.540Z,97877.47
2023-01-07T20:43:56.521Z,97873.91
2023-01-07T20:46:24.356Z,97879.75
2023-01-07T20:48:51.658Z,97877.88
2023-01-07T20:51:18.694Z,97875.69
2023-01-07T20:53:46.949Z,97873.75
2023-01-07T20:56:16.142Z,97873.38
2023-01-07T20:58:42.565Z,97875.84
2023-01-07T21:01:12.467Z,97873.00
2023-01-07T21:03:40.224Z,97867.81
2023-01-07T21:06:18.694Z,97874.84
2023-01-07T21:08:46.641Z,97868.72
2023-01-07T21:11:21.441Z,97865.16
2023-01-07T21:13:49.136Z,97859.16
2023-01-07T21:16:15.816Z,97870.06
2023-01-07T21:18:42.361Z,97861.22
2023-01-07T21:21:14.375Z,97849.66
2023-01-07T21:23:41.112Z,97841.63
2023-01-07T21:26:08.545Z,97846.13
2023-01-07T21:28:35.569Z,97843.53
2023-01-07T21:31:09.031Z,97839.84
2023-01-07T21:33:36.143Z,97850.69
2023-01-07T21:36:17.176Z,97843.75
2023-01-07T21:38:44.221Z,97838.34
2023-01-07T21:41:16.269Z,97835.66
2023-01-07T21:43:43.577Z,97848.03
2023-01-07T21:46:11.053Z,97839.41
2023-01-07T21:48:39.840Z,97831.53
2023-01-07T21:51:10.742Z,97835.00
2023-01-07T21:53:37.692Z,97822.44
2023-01-07T21:56:08.809Z,97832.13
2023-01-07T21:58:36.393Z,97840.41
2023-01-07T22:01:05.088Z,97842.81
2023-01-07T22:03:32.311Z,97833.66
2023-01-07T22:06:00.816Z,97838.16
2023-01-07T22:08:27.872Z,97839.47
2023-01-07T22:10:54.483Z,97844.06
2023-01-07T22:13:21.303Z,97847.50
2023-01-07T22:15:49.279Z,97840.34
2023-01-07T22:18:16.003Z,97842.13
2023-01-07T22:20:42.589Z,97838.38
2023-01-07T22:23:16.183Z,97834.44
2023-01-07T22:25:42.884Z,97836.34
2023-01-07T22:28:10.105Z,97839.75
2023-01-07T22:30:40.425Z,97833.66
2023-01-07T22:33:06.881Z,97828.59
2023-01-07T22:35:34.732Z,97824.44
2023-01-07T22:38:04.178Z,97818.44
2023-01-07T22:40:35.660Z,97807.38
2023-01-07T22:43:07.837Z,97815.44
2023-01-07T22:45:53.252Z,97805.81
2023-01-07T22:48:24.698Z,97801.56
2023-01-07T22:50:54.626Z,97793.13
2023-01-07T22:53:29.436Z,97797.06
2023-01-07T22:55:57.878Z,97795.50
2023-01-07T22:58:24.440Z,97803.03
2023-01-07T23:00:50.821Z,97792.75
2023-01-07T23:03:20.863Z,97791.16
2023-01-07T23:05:50.076Z,97779.50
2023-01-07T23:08:17.121Z,97779.34
2023-01-07T23:10:44.233Z,97775.63
2023-01-07T23:13:10.704Z,97780.03
2023-01-07T23:15:39.009Z,97774.94
2023-01-07T23:18:11.967Z,97775.16
2023-01-07T23:20:40.291Z,97768.44
2023-01-07T23:23:07.252Z,97775.53
2023-01-07T23:25:34.197Z,97769.03
2023-01-07T23:28:00.738Z,97765.28
2023-01-07T23:30:37.812Z,97764.31
2023-01-07T23:33:04.331Z,97764.16
2023-01-07T23:35:30.983Z,97764.59
2023-01-07T23:37:57.483Z,97751.72
2023-01-07T23:40:24.096Z,97758.69
2023-01-07T23:43:02.043Z,97743.81
2023-01-07T23:45:28.640Z,97739.78
2023-01-07T23:47:55.164Z,97731.78
2023-01-07T23:50:21.748Z,97726.44
2023-01-07T23:52:48.162Z,97720.16
2023-01-07T23:55:18.195Z,97707.25
2023-01-07T23:57:44.656Z,97696.53
